createdAt,value
2023-03-03T00:01:32.911Z,38.50
2023-03-03T00:03:59.869Z,37.58
2023-03-03T00:06:26.884Z,40.08
2023-03-03T00:08:53.473Z,48.13
2023-03-03T00:11:19.940Z,48.42
2023-03-03T00:13:52.035Z,44.13
2023-03-03T00:16:51.062Z,47.00
2023-03-03T00:19:19.465Z,41.30
2023-03-03T00:21:49.946Z,45.22
2023-03-03T00:24:25.877Z,55.97
2023-03-03T00:27:01.222Z,48.00
2023-03-03T00:29:35.667Z,47.92
2023-03-03T00:32:22.591Z,54.95
2023-03-03T00:34:50.356Z,49.85
2023-03-03T00:37:34.846Z,49.75
2023-03-03T00:40:21.783Z,52.05
2023-03-03T00:43:00.593Z,54.85
2023-03-03T00:45:43.374Z,48.65
2023-03-03T00:48:20.970Z,48.85
2023-03-03T00:50:47.573Z,49.90
2023-03-03T00:53:19.105Z,51.53
2023-03-03T00:55:47.417Z,56.53
2023-03-03T00:58:14.481Z,48.05
2023-03-03T01:00:45.720Z,50.60
2023-03-03T01:03:18.715Z,56.90
2023-03-03T01:05:45.279Z,48.00
2023-03-03T01:08:12.286Z,45.80
2023-03-03T01:10:44.111Z,47.55
2023-03-03T01:13:12.029Z,59.90
2023-03-03T01:15:40.232Z,62.33
2023-03-03T01:18:08.202Z,51.33
2023-03-03T01:20:40.677Z,58.88
2023-03-03T01:25:36.711Z,55.55
2023-03-03T01:28:06.096Z,53.40
2023-03-03T01:30:35.311Z,58.00
2023-03-03T01:33:01.909Z,52.38
2023-03-03T01:35:31.307Z,46.17
2023-03-03T01:37:58.880Z,52.90
2023-03-03T01:40:28.618Z,55.50
2023-03-03T01:42:55.253Z,46.95
2023-03-03T01:45:26.432Z,47.45
2023-03-03T01:48:06.661Z,45.47
2023-03-03T01:50:42.082Z,41.40
2023-03-03T01:53:16.093Z,50.03
2023-03-03T01:55:43.670Z,61.03
2023-03-03T01:58:22.144Z,54.53
2023-03-03T02:00:55.598Z,53.30
2023-03-03T02:03:24.711Z,50.47
2023-03-03T02:05:54.815Z,48.20
2023-03-03T02:08:28.536Z,39.97
2023-03-03T02:10:57.136Z,57.97
2023-03-03T02:13:23.764Z,48.80
2023-03-03T02:15:50.768Z,45.30
2023-03-03T02:18:19.963Z,44.75
2023-03-03T02:20:46.862Z,53.05
2023-03-03T02:23:35.453Z,53.50
2023-03-03T02:26:10.914Z,45.70
2023-03-03T02:28:39.863Z,40.85
2023-03-03T02:33:58.828Z,50.65
2023-03-03T02:36:31.836Z,49.50
2023-03-03T02:39:18.430Z,50.75
2023-03-03T02:41:48.216Z,50.65
2023-03-03T02:44:26.342Z,40.58
2023-03-03T02:46:57.011Z,46.58
2023-03-03T02:49:29.195Z,46.53
2023-03-03T02:51:55.884Z,45.70
2023-03-03T02:54:24.751Z,51.05
2023-03-03T02:56:53.572Z,42.92
2023-03-03T02:59:20.419Z,50.05
2023-03-03T03:01:47.743Z,50.97
2023-03-03T03:04:17.209Z,44.65
2023-03-03T03:06:44.724Z,47.42
2023-03-03T03:09:12.307Z,39.67
2023-03-03T03:11:39.382Z,46.20
2023-03-03T03:14:08.028Z,40.10
2023-03-03T03:16:35.290Z,43.45
2023-03-03T03:19:03.357Z,50.05
2023-03-03T03:21:32.463Z,42.83
2023-03-03T03:24:00.310Z,47.17
2023-03-03T03:26:27.120Z,39.45
2023-03-03T03:28:53.911Z,44.58
2023-03-03T03:31:22.637Z,43.03
2023-03-03T03:33:49.225Z,57.80
2023-03-03T03:36:19.217Z,48.20
2023-03-03T03:38:45.873Z,49.53
2023-03-03T03:41:13.854Z,53.15
2023-03-03T03:43:40.973Z,40.30
2023-03-03T03:46:08.671Z,43.63
2023-03-03T03:48:38.244Z,41.08
2023-03-03T03:51:07.245Z,42.00
2023-03-03T03:53:34.140Z,42.70
2023-03-03T03:56:02.990Z,38.03
2023-03-03T03:58:31.873Z,40.58
2023-03-03T04:01:06.387Z,48.05
2023-03-03T04:03:32.988Z,45.83
2023-03-03T04:05:59.677Z,55.03
2023-03-03T04:08:27.486Z,46.38
2023-03-03T04:10:54.253Z,48.95
2023-03-03T04:13:20.705Z,48.42
2023-03-03T04:15:52.206Z,45.50
2023-03-03T04:18:21.125Z,47.23
2023-03-03T04:20:55.118Z,46.17
2023-03-03T04:23:21.912Z,50.58
2023-03-03T04:25:49.068Z,47.47
2023-03-03T04:28:16.612Z,54.58
2023-03-03T04:30:43.176Z,51.20
2023-03-03T04:33:12.042Z,40.65
2023-03-03T04:35:38.655Z,52.03
2023-03-03T04:38:05.735Z,52.90
2023-03-03T04:40:32.209Z,41.70
2023-03-03T04:43:01.594Z,45.05
2023-03-03T04:45:29.213Z,47.28
2023-03-03T04:47:58.089Z,46.20
2023-03-03T04:50:24.877Z,51.92
2023-03-03T04:52:51.317Z,42.38
2023-03-03T04:55:20.132Z,39.00
2023-03-03T04:57:46.570Z,49.67
2023-03-03T05:00:16.474Z,57.60
2023-03-03T05:02:43.293Z,50.28
2023-03-03T05:05:10.793Z,40.13
2023-03-03T05:07:37.310Z,38.15
2023-03-03T05:10:04.151Z,55.05
2023-03-03T05:12:33.428Z,36.78
2023-03-03T05:15:00.045Z,44.10
2023-03-03T05:17:26.484Z,40.08
2023-03-03T05:19:53.105Z,47.55
2023-03-03T05:22:19.844Z,42.90
2023-03-03T05:24:49.138Z,41.30
2023-03-03T05:27:16.966Z,45.88
2023-03-03T05:29:43.628Z,43.85
2023-03-03T05:32:10.095Z,37.30
2023-03-03T05:34:37.254Z,43.60
2023-03-03T05:37:06.775Z,40.28
2023-03-03T05:39:34.387Z,36.67
2023-03-03T05:42:00.839Z,45.40
2023-03-03T05:44:27.736Z,47.03
2023-03-03T05:46:57.716Z,35.53
2023-03-03T05:49:25.656Z,43.15
2023-03-03T05:51:52.641Z,38.60
2023-03-03T05:54:19.151Z,42.45
2023-03-03T05:56:45.581Z,47.38
2023-03-03T05:59:12.038Z,39.80
2023-03-03T06:01:38.483Z,45.35
2023-03-03T06:04:08.461Z,34.95
2023-03-03T06:06:39.445Z,37.65
2023-03-03T06:09:06.272Z,45.92
2023-03-03T06:11:32.719Z,36.50
2023-03-03T06:14:01.716Z,26.67
2023-03-03T06:16:28.151Z,29.65
2023-03-03T06:18:54.704Z,32.05
2023-03-03T06:21:23.277Z,36.42
2023-03-03T06:23:49.645Z,36.63
2023-03-03T06:26:16.070Z,36.28
2023-03-03T06:28:42.435Z,30.50
2023-03-03T06:31:08.826Z,34.28
2023-03-03T06:33:35.456Z,34.88
2023-03-03T06:36:04.061Z,30.63
2023-03-03T06:38:31.991Z,32.90
2023-03-03T06:40:58.628Z,40.75
2023-03-03T06:43:25.406Z,41.45
2023-03-03T06:45:51.906Z,31.63
2023-03-03T06:48:18.372Z,35.35
2023-03-03T06:50:47.268Z,32.83
2023-03-03T06:53:15.763Z,31.70
2023-03-03T06:55:44.868Z,28.17
2023-03-03T06:58:20.050Z,33.80
2023-03-03T07:00:58.047Z,29.23
2023-03-03T07:03:34.832Z,30.30
2023-03-03T07:06:06.513Z,33.55
2023-03-03T07:08:33.098Z,26.87
2023-03-03T07:11:08.238Z,30.55
2023-03-03T07:13:45.202Z,41.63
2023-03-03T07:16:25.642Z,53.08
2023-03-03T07:19:23.961Z,40.25
2023-03-03T07:21:51.725Z,31.38
2023-03-03T07:24:33.872Z,32.88
2023-03-03T07:27:44.590Z,48.67
2023-03-03T07:31:23.968Z,37.40
2023-03-03T07:34:02.532Z,29.15
2023-03-03T07:36:44.906Z,32.05
2023-03-03T07:39:26.708Z,35.63
2023-03-03T07:45:04.623Z,48.60
2023-03-03T07:47:39.811Z,36.92
2023-03-03T07:50:37.456Z,35.10
2023-03-03T07:53:16.078Z,33.85
2023-03-03T07:55:54.944Z,43.28
2023-03-03T07:58:42.544Z,34.08
2023-03-03T08:02:12.501Z,29.35
2023-03-03T08:04:58.262Z,33.00
2023-03-03T08:10:49.572Z,29.52
2023-03-03T08:13:49.268Z,29.98
2023-03-03T08:16:15.922Z,29.67
2023-03-03T08:19:06.355Z,24.45
2023-03-03T08:21:39.152Z,32.22
2023-03-03T08:24:20.839Z,30.02
2023-03-03T08:26:51.023Z,28.67
2023-03-03T08:29:31.447Z,29.35
2023-03-03T08:31:58.234Z,32.10
2023-03-03T08:34:51.113Z,25.83
2023-03-03T08:37:24.152Z,26.73
2023-03-03T08:40:03.707Z,22.30
2023-03-03T08:42:33.204Z,17.38
2023-03-03T08:45:00.238Z,26.33
2023-03-03T08:50:38.547Z,25.20
2023-03-03T08:53:14.045Z,37.00
2023-03-03T08:55:45.602Z,35.30
2023-03-03T08:58:35.282Z,29.27
2023-03-03T09:01:14.014Z,29.80
2023-03-03T09:04:15.422Z,35.40
2023-03-03T09:06:47.052Z,25.83
2023-03-03T09:09:39.194Z,35.20
2023-03-03T09:12:51.810Z,36.28
2023-03-03T09:15:44.126Z,43.97
2023-03-03T09:18:16.998Z,36.13
2023-03-03T09:20:54.734Z,34.80
2023-03-03T09:26:56.904Z,33.80
2023-03-03T09:29:25.015Z,24.60
2023-03-03T09:31:57.504Z,38.78
2023-03-03T09:34:27.775Z,30.92
2023-03-03T09:36:55.546Z,33.72
2023-03-03T09:39:27.055Z,29.63
2023-03-03T09:42:06.549Z,40.23
2023-03-03T09:44:54.978Z,44.38
2023-03-03T09:47:39.955Z,30.38
2023-03-03T09:50:44.690Z,32.78
2023-03-03T09:53:34.911Z,27.00
2023-03-03T09:56:31.958Z,40.30
2023-03-03T09:59:19.188Z,31.38
2023-03-03T10:02:10.056Z,28.13
2023-03-03T10:04:46.879Z,34.38
2023-03-03T10:07:46.259Z,35.83
2023-03-03T10:10:38.834Z,30.98
2023-03-03T10:13:32.289Z,33.90
2023-03-03T10:16:22.324Z,37.08
2023-03-03T10:19:10.261Z,40.63
2023-03-03T10:22:00.589Z,46.00
2023-03-03T10:24:30.892Z,36.85
2023-03-03T10:27:13.133Z,36.17
2023-03-03T10:29:53.072Z,32.63
2023-03-03T10:32:33.344Z,33.92
2023-03-03T10:35:15.409Z,35.97
2023-03-03T10:38:04.611Z,38.10
2023-03-03T10:40:40.219Z,36.58
2023-03-03T10:43:31.080Z,41.42
2023-03-03T10:46:57.791Z,33.70
2023-03-03T10:49:43.502Z,33.08
2023-03-03T10:52:34.070Z,36.72
2023-03-03T10:55:21.810Z,38.55
2023-03-03T10:58:06.533Z,32.95
2023-03-03T11:00:52.159Z,43.20
2023-03-03T11:03:36.843Z,33.42
2023-03-03T11:06:38.402Z,32.50
2023-03-03T11:09:23.638Z,37.60
2023-03-03T11:11:59.065Z,32.80
2023-03-03T11:14:49.149Z,36.85
2023-03-03T11:17:42.402Z,41.58
2023-03-03T11:20:24.805Z,38.63
2023-03-03T11:23:03.302Z,39.55
2023-03-03T11:25:44.162Z,33.58
2023-03-03T11:28:13.262Z,31.52
2023-03-03T11:30:42.666Z,33.38
2023-03-03T11:33:24.593Z,35.60
2023-03-03T11:36:12.111Z,38.10
2023-03-03T11:38:44.440Z,34.13
2023-03-03T11:43:59.754Z,40.80
2023-03-03T11:46:36.480Z,40.25
2023-03-03T11:49:09.377Z,31.33
2023-03-03T11:51:41.969Z,38.70
2023-03-03T11:54:20.461Z,41.50
2023-03-03T11:56:48.294Z,40.03
2023-03-03T11:59:44.397Z,40.85
2023-03-03T12:02:22.839Z,42.90
2023-03-03T12:04:54.247Z,34.15
2023-03-03T12:07:48.490Z,36.17
2023-03-03T12:10:47.222Z,43.88
2023-03-03T12:13:22.555Z,40.88
2023-03-03T12:16:12.912Z,42.25
2023-03-03T12:18:59.964Z,41.58
2023-03-03T12:21:36.617Z,39.67
2023-03-03T12:27:18.459Z,35.65
2023-03-03T12:30:18.504Z,36.00
2023-03-03T12:33:07.085Z,39.60
2023-03-03T12:36:04.789Z,32.38
2023-03-03T12:38:40.337Z,40.78
2023-03-03T12:41:20.514Z,43.72
2023-03-03T12:44:02.902Z,30.02
2023-03-03T12:49:04.710Z,38.20
2023-03-03T12:52:14.545Z,37.42
2023-03-03T12:55:18.082Z,39.70
2023-03-03T12:58:03.339Z,38.13
2023-03-03T13:00:44.976Z,38.10
2023-03-03T13:03:46.208Z,40.33
2023-03-03T13:06:25.954Z,36.53
2023-03-03T13:09:03.998Z,32.30
2023-03-03T13:11:54.025Z,38.75
2023-03-03T13:15:02.001Z,37.70
2023-03-03T13:17:38.922Z,37.47
2023-03-03T13:20:43.262Z,32.90
2023-03-03T13:23:25.074Z,44.20
2023-03-03T13:25:55.917Z,40.35
2023-03-03T13:28:46.460Z,42.08
2023-03-03T13:31:20.973Z,39.08
2023-03-03T13:34:00.562Z,35.63
2023-03-03T13:36:34.918Z,34.83
2023-03-03T13:39:14.751Z,40.45
2023-03-03T13:42:25.621Z,38.60
2023-03-03T13:44:52.904Z,33.33
2023-03-03T13:47:41.959Z,32.67
2023-03-03T13:50:11.419Z,35.92
2023-03-03T13:52:48.279Z,34.05
2023-03-03T13:55:34.907Z,43.70
2023-03-03T13:58:16.569Z,33.80
2023-03-03T14:01:00.943Z,36.20
2023-03-03T14:03:42.160Z,42.13
2023-03-03T14:06:23.089Z,30.85
2023-03-03T14:09:13.330Z,35.88
2023-03-03T14:11:51.343Z,41.53
2023-03-03T14:14:30.276Z,35.97
2023-03-03T14:17:12.241Z,35.45
2023-03-03T14:19:47.259Z,33.38
2023-03-03T14:22:32.181Z,35.55
2023-03-03T14:25:11.014Z,31.25
2023-03-03T14:27:46.525Z,30.80
2023-03-03T14:30:22.167Z,37.00
2023-03-03T14:33:20.535Z,35.17
2023-03-03T14:35:59.445Z,35.88
2023-03-03T14:38:32.118Z,37.10
2023-03-03T14:41:15.551Z,30.63
2023-03-03T14:43:46.568Z,31.95
2023-03-03T14:46:29.668Z,33.55
2023-03-03T14:49:01.664Z,77.22
2023-03-03T14:51:47.946Z,44.50
2023-03-03T14:54:26.318Z,46.42
2023-03-03T14:57:31.536Z,30.13
2023-03-03T15:00:17.841Z,31.02
2023-03-03T15:02:47.270Z,31.60
2023-03-03T15:05:20.250Z,34.25
2023-03-03T15:07:51.265Z,35.35
2023-03-03T15:10:39.265Z,30.98
2023-03-03T15:13:21.292Z,34.60
2023-03-03T15:16:20.027Z,34.03
2023-03-03T15:19:14.060Z,37.30
2023-03-03T15:22:10.485Z,30.80
2023-03-03T15:24:53.426Z,32.20
2023-03-03T15:27:45.210Z,30.55
2023-03-03T15:30:31.458Z,32.77
2023-03-03T15:33:30.671Z,34.83
2023-03-03T15:36:08.990Z,27.27
2023-03-03T15:39:16.370Z,40.00
2023-03-03T15:42:15.892Z,51.95
2023-03-03T15:45:03.357Z,27.40
2023-03-03T15:48:01.739Z,31.45
2023-03-03T15:50:40.510Z,27.73
2023-03-03T15:53:25.475Z,31.52
2023-03-03T15:56:07.233Z,25.38
2023-03-03T15:58:35.035Z,34.78
2023-03-03T16:01:45.118Z,26.48
2023-03-03T16:04:18.051Z,30.90
2023-03-03T16:06:58.668Z,28.63
2023-03-03T16:09:52.169Z,35.63
2023-03-03T16:12:31.666Z,22.48
2023-03-03T16:15:04.281Z,27.17
2023-03-03T16:17:47.796Z,24.42
2023-03-03T16:20:23.411Z,37.17
2023-03-03T16:23:08.035Z,27.60
2023-03-03T16:26:05.260Z,28.00
2023-03-03T16:28:50.038Z,33.28
2023-03-03T16:31:48.537Z,33.63
2023-03-03T16:34:37.499Z,46.90
2023-03-03T16:37:22.790Z,24.45
2023-03-03T16:39:52.175Z,23.58
2023-03-03T16:42:37.981Z,26.48
2023-03-03T16:45:07.495Z,25.00
2023-03-03T16:47:53.468Z,25.25
2023-03-03T16:50:41.607Z,22.67
2023-03-03T16:53:32.900Z,18.50
2023-03-03T16:56:14.002Z,25.83
2023-03-03T16:59:12.186Z,27.48
2023-03-03T17:01:38.562Z,27.80
2023-03-03T17:04:45.821Z,19.13
2023-03-03T17:07:30.913Z,19.02
2023-03-03T17:10:12.246Z,25.52
2023-03-03T17:13:16.290Z,15.38
2023-03-03T17:16:08.615Z,24.90
2023-03-03T17:18:57.498Z,23.67
2023-03-03T17:21:45.173Z,21.05
2023-03-03T17:24:17.090Z,18.33
2023-03-03T17:27:00.842Z,20.83
2023-03-03T17:29:55.871Z,23.33
2023-03-03T17:32:25.222Z,20.77
2023-03-03T17:35:33.055Z,23.00
2023-03-03T17:38:33.948Z,19.80
2023-03-03T17:41:14.683Z,21.88
2023-03-03T17:43:49.828Z,22.85
2023-03-03T17:46:54.112Z,33.75
2023-03-03T17:49:38.079Z,22.88
2023-03-03T17:52:09.139Z,20.75
2023-03-03T17:55:26.308Z,27.10
2023-03-03T17:58:45.167Z,19.33
2023-03-03T18:01:45.689Z,21.33
2023-03-03T18:05:01.269Z,21.67
2023-03-03T18:07:46.663Z,21.25
2023-03-03T18:10:24.915Z,21.00
2023-03-03T18:13:28.877Z,29.52
2023-03-03T18:16:11.233Z,34.28
2023-03-03T18:18:50.146Z,38.58
2023-03-03T18:22:01.814Z,29.33
2023-03-03T18:24:54.130Z,32.63
2023-03-03T18:27:36.859Z,26.00
2023-03-03T18:30:18.521Z,30.95
2023-03-03T18:32:47.646Z,32.40
2023-03-03T18:35:39.992Z,26.40
2023-03-03T18:38:17.549Z,28.65
2023-03-03T18:41:12.777Z,31.52
2023-03-03T18:43:45.210Z,34.63
2023-03-03T18:48:51.742Z,31.77
2023-03-03T18:51:46.965Z,28.25
2023-03-03T18:54:17.249Z,27.52
2023-03-03T18:56:52.800Z,27.58
2023-03-03T18:59:43.322Z,29.00
2023-03-03T19:02:12.796Z,27.30
2023-03-03T19:04:43.283Z,18.90
2023-03-03T19:07:26.803Z,27.45
2023-03-03T19:09:57.472Z,26.13
2023-03-03T19:12:46.591Z,18.98
2023-03-03T19:15:31.539Z,21.20
2023-03-03T19:18:05.320Z,21.50
2023-03-03T19:21:05.286Z,18.73
2023-03-03T19:23:50.992Z,21.52
2023-03-03T19:26:30.215Z,15.65
2023-03-03T19:29:24.151Z,21.70
2023-03-03T19:32:09.109Z,23.02
2023-03-03T19:35:01.279Z,17.63
2023-03-03T19:37:40.198Z,21.63
2023-03-03T19:40:29.188Z,23.00
2023-03-03T19:43:14.367Z,19.58
2023-03-03T19:46:08.729Z,21.50
2023-03-03T19:48:57.218Z,20.02
2023-03-03T19:51:42.468Z,19.33
2023-03-03T19:54:37.344Z,26.88
2023-03-03T19:57:11.471Z,30.20
2023-03-03T19:59:54.475Z,25.83
2023-03-03T20:02:51.853Z,29.20
2023-03-03T20:05:44.086Z,22.38
2023-03-03T20:08:18.035Z,18.25
2023-03-03T20:11:10.449Z,27.40
2023-03-03T20:13:51.057Z,19.23
2023-03-03T20:16:43.013Z,20.70
2023-03-03T20:19:53.559Z,21.03
2023-03-03T20:22:20.523Z,23.05
2023-03-03T20:25:24.273Z,16.83
2023-03-03T20:27:50.732Z,22.02
2023-03-03T20:30:47.391Z,22.80
2023-03-03T20:33:20.219Z,23.85
2023-03-03T20:36:06.928Z,34.28
2023-03-03T20:38:58.375Z,18.58
2023-03-03T20:41:50.925Z,24.17
2023-03-03T20:44:25.773Z,28.38
2023-03-03T20:47:08.479Z,18.20
2023-03-03T20:52:35.719Z,19.60
2023-03-03T20:55:02.421Z,19.70
2023-03-03T20:57:47.265Z,30.63
2023-03-03T21:00:31.489Z,20.65
2023-03-03T21:03:22.966Z,17.02
2023-03-03T21:06:03.236Z,18.27
2023-03-03T21:08:56.949Z,14.85
2023-03-03T21:11:32.040Z,16.90
2023-03-03T21:14:10.190Z,14.50
2023-03-03T21:16:36.670Z,15.30
2023-03-03T21:19:11.723Z,15.73
2023-03-03T21:21:45.156Z,18.77
2023-03-03T21:24:15.203Z,18.98
2023-03-03T21:27:00.533Z,17.70
2023-03-03T21:29:35.644Z,15.73
2023-03-03T21:32:09.603Z,15.18
2023-03-03T21:34:41.420Z,12.93
2023-03-03T21:37:15.293Z,21.38
2023-03-03T21:39:44.824Z,10.18
2023-03-03T21:42:14.490Z,22.23
2023-03-03T21:44:50.666Z,16.90
2023-03-03T21:47:27.488Z,11.90
2023-03-03T21:49:54.031Z,14.63
2023-03-03T21:52:24.332Z,19.88
2023-03-03T21:54:51.791Z,17.10
2023-03-03T21:57:25.344Z,14.65
2023-03-03T21:59:53.738Z,12.50
2023-03-03T22:02:20.392Z,14.55
2023-03-03T22:04:49.642Z,12.10
2023-03-03T22:07:16.203Z,13.60
2023-03-03T22:09:42.869Z,14.52
2023-03-03T22:12:12.167Z,11.35
2023-03-03T22:14:38.674Z,14.88
2023-03-03T22:17:10.607Z,15.30
2023-03-03T22:19:42.136Z,15.85
2023-03-03T22:22:08.594Z,19.33
2023-03-03T22:24:35.067Z,19.05
2023-03-03T22:27:01.590Z,14.88
2023-03-03T22:29:27.987Z,16.58
2023-03-03T22:31:54.529Z,20.08
2023-03-03T22:34:21.245Z,18.83
2023-03-03T22:36:47.621Z,20.70
2023-03-03T22:39:14.018Z,20.50
2023-03-03T22:41:40.464Z,26.92
2023-03-03T22:44:07.072Z,29.77
2023-03-03T22:46:33.583Z,25.90
2023-03-03T22:49:00.069Z,27.27
2023-03-03T22:51:29.165Z,29.17
2023-03-03T22:53:55.664Z,32.45
2023-03-03T22:56:22.089Z,30.77
2023-03-03T22:58:49.176Z,35.15
2023-03-03T23:01:15.598Z,30.75
2023-03-03T23:03:42.051Z,34.22
2023-03-03T23:06:08.427Z,29.00
2023-03-03T23:08:37.076Z,39.63
2023-03-03T23:11:03.684Z,36.33
2023-03-03T23:13:32.546Z,37.35
2023-03-03T23:16:02.684Z,40.13
2023-03-03T23:18:29.557Z,39.92
2023-03-03T23:20:56.757Z,33.28
2023-03-03T23:23:23.672Z,39.05
2023-03-03T23:25:50.151Z,41.38
2023-03-03T23:28:16.701Z,35.42
2023-03-03T23:30:43.190Z,42.72
2023-03-03T23:33:09.682Z,41.45
2023-03-03T23:35:36.650Z,40.45
2023-03-03T23:38:03.205Z,38.60
2023-03-03T23:40:32.966Z,44.28
2023-03-03T23:42:59.544Z,40.38
2023-03-03T23:45:28.335Z,40.75
2023-03-03T23:47:54.789Z,39.53
2023-03-03T23:50:24.324Z,38.47
2023-03-03T23:52:51.911Z,44.00
2023-03-03T23:55:18.740Z,45.92
2023-03-03T23:57:48.000Z,41.85
